Time;durP1;ratioP1;P1;durP2;ratioP2;P2;SDS_P1;SDS_P2;PMS_P1;PMS_P2;Temp;Humidity;BMP_temperature;BMP_pressure;BME280_temperature;BME280_humidity;BME280_pressure;Samples;Min_cycle;Max_cycle;Signal;HPM_P1;HPM_P2
2023/02/24 00:01:07;;;;;;;7.93;5.67;;;6.90;99.90;;;;;;5066236;28;20465;-68
2023/02/24 00:03:36;;;;;;;7.30;6.10;;;7.10;99.90;;;;;;5067540;28;20544;-69
2023/02/24 00:06:10;;;;;;;9.33;6.17;;;7.00;99.90;;;;;;5067462;28;20454;-68
2023/02/24 00:08:37;;;;;;;11.77;7.40;;;7.00;99.90;;;;;;5067517;28;20456;-69
2023/02/24 00:11:09;;;;;;;8.10;5.93;;;6.90;99.90;;;;;;5067167;28;21001;-69
2023/02/24 00:13:36;;;;;;;8.00;5.93;;;6.80;99.90;;;;;;5066974;28;20511;-68
2023/02/24 00:16:04;;;;;;;7.80;6.27;;;6.60;99.90;;;;;;5067041;28;20448;-71
2023/02/24 00:18:32;;;;;;;7.03;6.03;;;6.60;99.90;;;;;;5065834;28;20471;-70
2023/02/24 00:21:09;;;;;;;7.40;5.60;;;6.50;99.90;;;;;;5067005;28;20564;-70
2023/02/24 00:23:37;;;;;;;10.33;6.37;;;6.50;99.90;;;;;;5067057;28;20449;-68
2023/02/24 00:26:05;;;;;;;9.90;6.50;;;6.50;99.90;;;;;;5067033;28;20537;-68
2023/02/24 00:28:32;;;;;;;8.90;6.40;;;6.40;99.90;;;;;;5067023;28;20449;-68
2023/02/24 00:31:04;;;;;;;9.63;6.83;;;6.30;99.90;;;;;;5066917;28;20989;-68
2023/02/24 00:33:31;;;;;;;11.10;6.77;;;6.30;99.90;;;;;;5065807;28;20462;-68
2023/02/24 00:36:07;;;;;;;9.07;6.60;;;6.30;99.90;;;;;;5067067;28;20438;-68
2023/02/24 00:38:35;;;;;;;9.77;6.57;;;6.30;99.90;;;;;;5066996;28;20452;-68
2023/02/24 00:41:08;;;;;;;9.47;6.60;;;6.40;99.90;;;;;;5066896;28;20449;-68
2023/02/24 00:43:36;;;;;;;9.90;6.17;;;6.30;99.90;;;;;;5066773;28;20458;-70
2023/02/24 00:46:09;;;;;;;10.37;6.50;;;6.30;99.90;;;;;;5066886;28;20449;-68
2023/02/24 00:48:39;;;;;;;6.27;5.37;;;6.20;99.90;;;;;;5066731;28;20471;-70
2023/02/24 00:51:09;;;;;;;6.30;5.70;;;6.10;99.90;;;;;;5065438;28;20461;-67
2023/02/24 00:53:37;;;;;;;7.80;6.50;;;6.00;99.90;;;;;;5069081;28;20538;-70
2023/02/24 00:56:05;;;;;;;9.30;6.53;;;6.00;99.90;;;;;;5070829;28;20921;-70
2023/02/24 00:58:33;;;;;;;10.90;6.97;;;6.00;99.90;;;;;;5070598;28;20938;-69
2023/02/24 01:01:01;;;;;;;7.20;6.50;;;6.10;99.90;;;;;;5070607;28;20453;-70
2023/02/24 01:03:28;;;;;;;8.40;6.47;;;6.20;99.90;;;;;;5070883;28;20449;-69
2023/02/24 01:05:55;;;;;;;10.33;6.33;;;5.80;99.90;;;;;;5069501;28;20499;-69
2023/02/24 01:08:23;;;;;;;11.10;6.43;;;5.90;99.90;;;;;;5070649;28;20453;-69
2023/02/24 01:13:37;;;;;;;10.30;5.87;;;6.00;99.90;;;;;;5069981;28;20804;-69
2023/02/24 01:16:05;;;;;;;7.43;5.57;;;5.90;99.90;;;;;;5070435;28;20663;-69
2023/02/24 01:18:32;;;;;;;9.13;6.67;;;5.90;99.90;;;;;;5070420;28;20461;-70
2023/02/24 01:20:59;;;;;;;12.17;6.10;;;6.00;99.90;;;;;;5069007;28;20985;-70
2023/02/24 01:23:27;;;;;;;7.57;5.93;;;6.00;99.90;;;;;;5070555;28;20453;-69
2023/02/24 01:25:57;;;;;;;7.73;5.50;;;6.00;99.90;;;;;;5070171;28;20445;-70
2023/02/24 01:28:23;;;;;;;9.90;6.23;;;6.00;99.90;;;;;;5070131;28;20453;-70
2023/02/24 01:30:51;;;;;;;9.73;5.83;;;6.00;99.90;;;;;;5069949;28;20469;-69
2023/02/24 01:33:17;;;;;;;10.57;6.50;;;5.80;99.90;;;;;;5069940;28;20485;-70
2023/02/24 01:35:44;;;;;;;9.20;6.87;;;5.60;99.90;;;;;;5070211;28;20457;-69
2023/02/24 01:38:11;;;;;;;9.17;6.10;;;5.40;99.90;;;;;;5069150;28;20465;-69
2023/02/24 01:40:39;;;;;;;13.53;7.50;;;5.40;99.90;;;;;;5070034;28;20452;-69
2023/02/24 01:43:07;;;;;;;9.00;7.30;;;5.40;99.90;;;;;;5070166;28;21090;-69
2023/02/24 01:45:35;;;;;;;10.10;7.90;;;5.30;99.90;;;;;;5071753;28;20449;-68
2023/02/24 01:48:05;;;;;;;10.70;6.13;;;5.30;99.90;;;;;;5070691;28;20454;-70
2023/02/24 01:50:34;;;;;;;15.77;7.53;;;5.30;99.90;;;;;;5069725;28;20452;-70
2023/02/24 01:53:04;;;;;;;6.70;5.50;;;5.40;99.90;;;;;;5069811;28;20477;-70
2023/02/24 01:55:35;;;;;;;10.60;6.00;;;5.50;99.90;;;;;;5068384;28;20461;-68
2023/02/24 01:58:11;;;;;;;6.53;5.93;;;5.40;99.90;;;;;;5069553;28;20449;-69
2023/02/24 02:00:43;;;;;;;9.23;6.50;;;5.60;99.90;;;;;;5071000;28;21056;-70
2023/02/24 02:03:15;;;;;;;9.13;6.00;;;5.70;99.90;;;;;;5071253;28;20446;-69
2023/02/24 02:05:44;;;;;;;8.47;6.63;;;5.50;99.90;;;;;;5069432;28;20442;-69
2023/02/24 02:08:11;;;;;;;7.47;6.10;;;5.50;99.90;;;;;;5070862;28;20499;-70
2023/02/24 02:10:43;;;;;;;7.77;5.00;;;5.40;99.90;;;;;;5071380;28;20453;-69
2023/02/24 02:13:13;;;;;;;10.20;6.50;;;5.60;99.90;;;;;;5068456;28;20496;-69
2023/02/24 02:15:50;;;;;;;5.83;5.23;;;5.50;99.90;;;;;;5070019;28;20445;-70
2023/02/24 02:18:25;;;;;;;6.03;5.03;;;5.50;99.90;;;;;;5069442;28;20448;-69
2023/02/24 02:21:29;;;;;;;16.20;6.40;;;5.50;99.90;;;;;;5069243;28;20465;-68
2023/02/24 02:24:11;;;;;;;7.87;7.07;;;5.40;99.90;;;;;;5069418;28;20449;-69
2023/02/24 02:26:52;;;;;;;8.60;5.90;;;;;;;;;;5067764;28;20472;-69
2023/02/24 02:29:50;;;;;;;7.50;5.77;;;4.90;99.90;;;;;;5068917;28;20509;-69
2023/02/24 02:32:50;;;;;;;9.80;5.70;;;5.40;99.90;;;;;;5068935;28;21010;-69
2023/02/24 02:35:22;;;;;;;8.37;5.57;;;5.20;99.90;;;;;;5069118;28;20939;-70
2023/02/24 02:37:55;;;;;;;6.07;4.90;;;5.40;99.90;;;;;;5069183;28;20461;-68
2023/02/24 02:40:31;;;;;;;8.37;6.13;;;5.40;99.90;;;;;;5069027;28;20446;-70
2023/02/24 02:43:04;;;;;;;10.83;6.60;;;5.20;99.90;;;;;;5069108;28;20541;-69
2023/02/24 02:45:39;;;;;;;9.80;6.70;;;5.20;99.90;;;;;;5067878;28;20488;-69
2023/02/24 02:48:10;;;;;;;9.50;6.30;;;5.10;99.90;;;;;;5068895;28;20445;-68
2023/02/24 02:50:44;;;;;;;7.17;6.00;;;5.20;99.90;;;;;;5068959;28;20826;-69
2023/02/24 02:53:18;;;;;;;9.67;5.73;;;5.10;99.90;;;;;;5068980;28;20481;-69
2023/02/24 02:55:47;;;;;;;7.93;6.37;;;5.10;99.90;;;;;;5069003;28;20451;-69
2023/02/24 02:58:18;;;;;;;7.53;5.23;;;5.10;99.90;;;;;;5068878;28;20450;-70
2023/02/24 03:00:57;;;;;;;8.33;5.53;;;4.80;99.90;;;;;;5067520;28;20466;-69
2023/02/24 03:03:26;;;;;;;8.30;5.97;;;4.80;99.90;;;;;;5068402;28;20858;-69
2023/02/24 03:05:59;;;;;;;9.30;5.63;;;4.70;99.90;;;;;;5068841;28;20818;-69
2023/02/24 03:08:29;;;;;;;8.67;6.37;;;4.80;99.90;;;;;;5068846;28;20968;-85
2023/02/24 03:10:59;;;;;;;8.40;6.00;;;4.80;99.90;;;;;;5068890;28;20457;-86
2023/02/24 03:13:29;;;;;;;7.70;5.60;;;4.80;99.90;;;;;;5069087;28;21412;-84
2023/02/24 03:15:59;;;;;;;9.97;6.13;;;4.70;99.90;;;;;;5068926;28;20528;-83
2023/02/24 03:18:29;;;;;;;7.23;5.47;;;4.80;99.90;;;;;;5067462;28;20458;-84
2023/02/24 03:21:06;;;;;;;10.33;5.93;;;4.80;99.90;;;;;;5068602;28;20496;-86
2023/02/24 03:23:35;;;;;;;9.10;6.20;;;5.00;99.90;;;;;;5068060;28;20489;-84
2023/02/24 03:26:15;;;;;;;8.50;5.80;;;4.70;99.90;;;;;;5067969;28;20460;-85
2023/02/24 03:28:48;;;;;;;11.87;6.30;;;4.80;99.90;;;;;;5068301;28;20463;-85
2023/02/24 03:31:22;;;;;;;7.30;5.37;;;4.90;99.90;;;;;;5068465;28;20485;-83
2023/02/24 03:33:59;;;;;;;6.93;4.97;;;4.70;99.90;;;;;;5068453;28;20489;-84
2023/02/24 03:36:28;;;;;;;6.57;5.50;;;4.80;99.90;;;;;;5067504;28;21494;-85
2023/02/24 03:38:57;;;;;;;6.97;4.37;;;4.80;99.90;;;;;;5065585;28;20492;-84
2023/02/24 03:41:29;;;;;;;8.43;6.07;;;4.70;99.90;;;;;;5048576;28;20462;-82
2023/02/24 03:43:57;;;;;;;6.53;5.67;;;4.60;99.90;;;;;;5048441;28;20438;-80
2023/02/24 03:46:24;;;;;;;6.33;4.87;;;4.50;99.90;;;;;;5048164;28;20446;-81
2023/02/24 03:48:58;;;;;;;8.10;4.90;;;4.60;99.90;;;;;;5048491;28;20456;-81
2023/02/24 03:51:27;;;;;;;12.07;5.00;;;4.60;99.90;;;;;;5048508;28;20452;-83
2023/02/24 03:54:04;;;;;;;5.33;4.40;;;4.50;99.90;;;;;;5061989;28;20488;-84
2023/02/24 03:56:44;;;;;;;6.70;4.60;;;4.50;99.90;;;;;;5068665;28;20476;-82
2023/02/24 03:59:24;;;;;;;11.57;6.03;;;4.50;99.90;;;;;;5068493;28;20517;-82
2023/02/24 04:01:56;;;;;;;9.17;4.63;;;4.50;99.90;;;;;;5068232;28;20533;-83
2023/02/24 04:04:32;;;;;;;7.10;4.87;;;4.60;99.90;;;;;;5068246;28;20453;-84
2023/02/24 04:07:08;;;;;;;5.30;4.80;;;4.70;99.90;;;;;;5068773;28;20455;-83
2023/02/24 04:09:41;;;;;;;7.43;4.80;;;4.60;99.90;;;;;;5067297;28;20552;-83
2023/02/24 04:12:15;;;;;;;5.77;4.03;;;4.70;99.90;;;;;;5068014;28;20444;-83
2023/02/24 04:14:50;;;;;;;7.63;4.47;;;4.70;99.90;;;;;;5068637;28;20480;-84
2023/02/24 04:17:20;;;;;;;5.23;4.73;;;4.70;99.90;;;;;;5067900;28;20433;-82
2023/02/24 04:19:50;;;;;;;9.03;5.10;;;4.60;99.90;;;;;;5067899;28;20513;-83
2023/02/24 04:22:23;;;;;;;8.10;4.90;;;4.70;99.90;;;;;;5067475;28;21288;-82
2023/02/24 04:24:52;;;;;;;13.63;6.60;;;4.80;99.90;;;;;;5067513;28;20460;-88
2023/02/24 04:27:19;;;;;;;7.20;4.63;;;4.70;99.90;;;;;;5069370;28;20438;-88
2023/02/24 04:29:51;;;;;;;6.13;4.30;;;4.90;99.90;;;;;;5068696;28;20485;-86
2023/02/24 04:32:22;;;;;;;7.60;4.40;;;4.80;99.90;;;;;;5068876;28;20496;-86
2023/02/24 04:34:49;;;;;;;10.63;5.90;;;4.90;99.90;;;;;;5070339;28;20989;-86
2023/02/24 04:37:21;;;;;;;12.77;5.23;;;5.00;99.90;;;;;;5072247;28;20539;-87
2023/02/24 04:39:49;;;;;;;5.63;5.03;;;4.90;99.90;;;;;;5068638;28;20468;-85
2023/02/24 04:42:18;;;;;;;9.90;4.40;;;4.90;99.90;;;;;;5068635;28;21074;-85
2023/02/24 04:44:45;;;;;;;6.87;4.43;;;5.00;99.90;;;;;;5070476;28;20465;-87
2023/02/24 04:47:13;;;;;;;4.50;4.03;;;4.80;99.90;;;;;;5070824;28;20449;-86
2023/02/24 04:49:39;;;;;;;5.93;4.20;;;4.90;99.90;;;;;;5067844;28;20479;-85
2023/02/24 04:52:07;;;;;;;8.67;4.30;;;4.70;99.90;;;;;;5074820;28;21007;-85
2023/02/24 04:54:36;;;;;;;6.10;4.13;;;4.70;99.90;;;;;;5076819;28;21026;-84
2023/02/24 04:57:05;;;;;;;7.93;4.10;;;4.60;99.90;;;;;;5066977;28;20470;-85
2023/02/24 04:59:32;;;;;;;4.70;3.67;;;4.70;99.90;;;;;;5051581;28;20509;-87
2023/02/24 05:02:01;;;;;;;6.87;4.63;;;4.70;99.90;;;;;;5050652;28;20470;-87
2023/02/24 05:04:30;;;;;;;7.87;4.97;;;4.70;99.90;;;;;;5050620;28;21229;-87
2023/02/24 05:06:57;;;;;;;5.90;4.87;;;4.60;99.90;;;;;;5050150;28;20833;-85
2023/02/24 05:09:28;;;;;;;8.77;4.20;;;4.70;99.90;;;;;;5048172;28;20446;-87
2023/02/24 05:11:57;;;;;;;6.37;4.63;;;4.60;99.90;;;;;;5049014;28;20446;-86
2023/02/24 05:14:25;;;;;;;4.60;3.73;;;4.50;99.90;;;;;;5047778;28;20577;-85
2023/02/24 05:16:58;;;;;;;4.60;4.20;;;4.60;99.90;;;;;;5069080;28;20476;-88
2023/02/24 05:22:13;;;;;;;6.20;4.57;;;4.70;99.90;;;;;;5069618;28;20465;-87
2023/02/24 05:24:40;;;;;;;5.67;4.30;;;4.60;99.90;;;;;;5069282;28;20464;-89
2023/02/24 05:27:09;;;;;;;11.60;5.73;;;4.60;99.90;;;;;;5069489;28;20505;-88
2023/02/24 05:29:37;;;;;;;9.93;4.50;;;4.50;99.90;;;;;;5069941;28;20500;-86
2023/02/24 05:32:06;;;;;;;4.40;4.00;;;4.50;99.90;;;;;;5065356;28;20454;-85
2023/02/24 05:34:33;;;;;;;6.40;4.43;;;4.50;99.90;;;;;;5050538;28;20497;-86
2023/02/24 05:37:08;;;;;;;6.70;5.60;;;4.60;99.90;;;;;;5065253;28;20454;-83
2023/02/24 05:39:36;;;;;;;4.70;4.30;;;4.40;99.90;;;;;;5063152;28;20454;-82
2023/02/24 05:42:05;;;;;;;6.10;4.00;;;4.50;99.90;;;;;;5058185;28;20450;-77
2023/02/24 05:44:35;;;;;;;4.40;3.97;;;4.60;99.90;;;;;;5051577;28;20458;-75
2023/02/24 05:47:04;;;;;;;7.27;3.67;;;4.50;99.90;;;;;;5068420;28;20820;-78
2023/02/24 05:49:33;;;;;;;4.57;4.17;;;4.60;99.90;;;;;;5067776;28;20500;-83
2023/02/24 05:52:06;;;;;;;7.47;5.30;;;4.70;99.90;;;;;;5051432;28;20457;-74
2023/02/24 05:54:35;;;;;;;7.57;4.73;;;4.70;99.90;;;;;;5050709;28;20494;-78
2023/02/24 05:57:04;;;;;;;5.60;4.70;;;4.80;99.90;;;;;;5050310;28;20471;-75
2023/02/24 05:59:32;;;;;;;21.40;6.93;;;4.80;99.90;;;;;;5063233;28;21006;-79
2023/02/24 06:02:05;;;;;;;12.13;5.17;;;4.80;99.90;;;;;;5061773;28;20462;-76
2023/02/24 06:04:39;;;;;;;7.10;5.27;;;4.80;99.90;;;;;;5062507;28;20457;-77
2023/02/24 06:07:12;;;;;;;8.83;6.13;;;5.00;99.90;;;;;;5064340;28;20536;-83
2023/02/24 06:09:43;;;;;;;5.73;4.67;;;4.70;99.90;;;;;;5070562;28;20449;-84
2023/02/24 06:12:10;;;;;;;6.97;4.70;;;4.50;99.90;;;;;;5071079;28;20806;-87
2023/02/24 06:14:37;;;;;;;7.50;5.20;;;4.80;99.90;;;;;;5071348;28;20485;-84
2023/02/24 06:17:06;;;;;;;8.50;6.27;;;4.90;99.90;;;;;;5070857;28;20556;-84
2023/02/24 06:19:32;;;;;;;7.63;5.10;;;4.80;99.90;;;;;;5071252;28;20478;-83
2023/02/24 06:22:01;;;;;;;10.50;5.90;;;4.90;99.90;;;;;;5070344;28;20596;-85
2023/02/24 06:24:29;;;;;;;5.70;4.50;;;4.80;99.90;;;;;;5070857;28;20457;-86
2023/02/24 06:27:01;;;;;;;6.50;5.33;;;4.90;99.90;;;;;;5069554;28;20901;-82
2023/02/24 06:29:29;;;;;;;6.20;5.60;;;4.60;99.90;;;;;;5068064;28;20493;-77
2023/02/24 06:31:57;;;;;;;8.60;4.90;;;4.50;99.90;;;;;;5068141;28;20733;-83
2023/02/24 06:34:26;;;;;;;7.00;4.90;;;4.50;99.90;;;;;;5071225;28;20514;-83
2023/02/24 06:36:53;;;;;;;7.73;4.73;;;4.50;99.90;;;;;;5080789;28;20471;-83
2023/02/24 06:39:20;;;;;;;8.73;5.53;;;4.50;99.90;;;;;;5087287;28;20905;-82
2023/02/24 06:41:50;;;;;;;6.13;4.47;;;4.50;99.90;;;;;;5086587;28;20472;-83
2023/02/24 06:44:17;;;;;;;7.23;4.87;;;4.50;99.90;;;;;;5079447;28;20438;-80
2023/02/24 06:46:45;;;;;;;13.00;5.37;;;4.50;99.90;;;;;;5086127;28;20441;-80
2023/02/24 06:49:11;;;;;;;5.77;3.87;;;4.50;99.90;;;;;;5083409;28;20448;-81
2023/02/24 06:51:42;;;;;;;7.83;4.27;;;4.50;99.90;;;;;;5082266;28;20442;-80
2023/02/24 06:54:09;;;;;;;7.40;4.73;;;4.50;99.90;;;;;;5081088;28;20481;-80
2023/02/24 06:56:37;;;;;;;9.73;4.93;;;4.50;99.90;;;;;;5090842;28;20455;-79
2023/02/24 06:59:10;;;;;;;9.00;4.07;;;4.60;99.90;;;;;;5086383;28;20509;-78
2023/02/24 07:01:44;;;;;;;6.83;5.03;;;4.60;99.90;;;;;;5082979;28;20441;-78
2023/02/24 07:04:19;;;;;;;7.43;5.13;;;4.50;99.90;;;;;;5083811;28;20433;-79
2023/02/24 07:06:51;;;;;;;5.30;4.13;;;4.60;99.90;;;;;;5065333;28;20488;-79
2023/02/24 07:09:20;;;;;;;9.97;5.70;;;4.70;99.90;;;;;;5060636;28;20533;-81
2023/02/24 07:11:51;;;;;;;8.80;5.10;;;4.70;99.90;;;;;;5056636;28;20926;-85
2023/02/24 07:14:19;;;;;;;6.97;4.37;;;4.90;99.90;;;;;;5052732;28;20486;-82
2023/02/24 07:16:46;;;;;;;9.10;5.83;;;5.10;99.90;;;;;;5049541;28;20446;-83
2023/02/24 07:19:15;;;;;;;6.80;5.60;;;5.30;99.90;;;;;;5047917;28;20548;-84
2023/02/24 07:21:48;;;;;;;8.13;5.70;;;5.50;99.90;;;;;;5047452;28;20454;-82
2023/02/24 07:24:24;;;;;;;9.60;5.20;;;5.20;99.90;;;;;;5068188;28;20454;-81
2023/02/24 07:26:59;;;;;;;13.63;6.13;;;5.00;99.90;;;;;;5069229;28;20461;-81
2023/02/24 07:29:28;;;;;;;7.97;5.30;;;5.00;99.90;;;;;;5068970;28;20485;-83
2023/02/24 07:31:55;;;;;;;6.90;5.40;;;5.10;99.90;;;;;;5068120;28;20446;-77
2023/02/24 07:34:24;;;;;;;7.37;5.40;;;5.30;99.90;;;;;;5067398;28;20481;-81
2023/02/24 07:36:52;;;;;;;10.60;4.70;;;5.50;99.90;;;;;;5067609;28;20437;-80
2023/02/24 07:39:22;;;;;;;7.83;5.00;;;5.80;99.90;;;;;;5066171;28;20466;-79
2023/02/24 07:41:52;;;;;;;11.83;5.73;;;6.10;99.90;;;;;;5066115;28;20453;-79
2023/02/24 07:44:20;;;;;;;7.30;4.30;;;6.50;99.90;;;;;;5065856;28;20954;-75
2023/02/24 07:46:48;;;;;;;5.73;4.73;;;6.70;99.90;;;;;;5067173;28;20445;-75
2023/02/24 07:49:18;;;;;;;6.50;5.83;;;7.00;99.90;;;;;;5067201;28;20449;-74
2023/02/24 07:51:51;;;;;;;7.13;5.07;;;7.00;99.90;;;;;;5047686;28;20431;-75
2023/02/24 07:54:20;;;;;;;10.77;6.10;;;6.90;99.90;;;;;;5047229;28;21161;-75
2023/02/24 07:56:55;;;;;;;7.67;4.83;;;6.80;99.90;;;;;;5063089;28;20567;-73
2023/02/24 07:59:22;;;;;;;5.80;5.10;;;7.20;99.90;;;;;;5067192;28;20467;-73
2023/02/24 08:01:49;;;;;;;14.53;7.00;;;6.90;99.90;;;;;;5066605;28;20461;-75
2023/02/24 08:04:19;;;;;;;9.30;6.23;;;6.50;99.90;;;;;;5066490;28;20582;-75
2023/02/24 08:06:54;;;;;;;14.57;5.90;;;6.60;99.90;;;;;;5067133;28;20477;-76
2023/02/24 08:09:45;;;;;;;11.53;6.30;;;7.00;99.90;;;;;;5067353;28;20457;-77
2023/02/24 08:12:16;;;;;;;10.43;6.03;;;7.40;99.90;;;;;;5066082;28;20461;-74
2023/02/24 08:14:49;;;;;;;8.23;6.07;;;6.70;99.90;;;;;;5066892;28;20477;-75
2023/02/24 08:17:18;;;;;;;18.90;9.03;;;6.70;99.90;;;;;;5067596;28;20785;-75
2023/02/24 08:19:47;;;;;;;11.23;7.43;;;6.80;99.90;;;;;;5066976;28;20504;-75
2023/02/24 08:22:19;;;;;;;10.67;7.00;;;6.90;99.90;;;;;;5066867;28;20453;-76
2023/02/24 08:24:49;;;;;;;9.40;5.93;;;7.20;99.90;;;;;;5066798;28;20438;-75
2023/02/24 08:27:18;;;;;;;9.30;7.07;;;7.10;99.90;;;;;;5065514;28;20728;-74
2023/02/24 08:29:57;;;;;;;12.33;5.97;;;7.00;99.90;;;;;;5066311;28;20477;-73
2023/02/24 08:32:25;;;;;;;8.43;6.10;;;7.00;99.90;;;;;;5067655;28;20548;-79
2023/02/24 08:34:55;;;;;;;9.90;6.30;;;7.30;99.90;;;;;;5067425;28;20966;-79
2023/02/24 08:37:23;;;;;;;10.67;6.50;;;7.30;99.90;;;;;;5067092;28;20457;-77
2023/02/24 08:39:52;;;;;;;9.33;7.20;;;7.20;99.90;;;;;;5066829;28;20442;-79
2023/02/24 08:42:28;;;;;;;10.77;7.43;;;7.40;99.90;;;;;;5066790;28;20474;-79
2023/02/24 08:44:56;;;;;;;10.27;6.43;;;7.20;99.90;;;;;;5065754;28;20465;-81
2023/02/24 08:47:29;;;;;;;10.17;7.10;;;7.30;99.90;;;;;;5067037;28;20880;-78
2023/02/24 08:49:58;;;;;;;19.60;7.50;;;7.50;99.90;;;;;;5067682;28;20449;-79
2023/02/24 08:52:26;;;;;;;10.63;6.87;;;7.60;99.90;;;;;;5067422;28;20906;-81
2023/02/24 08:54:58;;;;;;;14.77;7.90;;;7.10;99.90;;;;;;5067505;28;20542;-80
2023/02/24 08:57:25;;;;;;;17.40;8.60;;;7.20;99.90;;;;;;5067540;28;20473;-82
2023/02/24 08:59:56;;;;;;;10.27;5.90;;;7.30;99.90;;;;;;5065907;28;20468;-77
2023/02/24 09:02:26;;;;;;;11.13;7.03;;;7.50;99.90;;;;;;5067468;28;20454;-79
2023/02/24 09:04:54;;;;;;;14.93;7.93;;;7.40;99.90;;;;;;5067383;28;20576;-80
2023/02/24 09:07:23;;;;;;;13.30;7.90;;;7.80;99.90;;;;;;5067459;28;20449;-82
2023/02/24 09:09:55;;;;;;;18.77;9.17;;;7.70;99.90;;;;;;5071700;28;20446;-92
2023/02/24 09:12:24;;;;;;;12.07;7.53;;;7.80;99.90;;;;;;5070199;28;20442;-81
2023/02/24 09:14:55;;;;;;;13.67;8.50;;;8.00;99.90;;;;;;5068233;28;20570;-80
2023/02/24 09:17:38;;;;;;;13.33;7.47;;;8.20;99.90;;;;;;5070784;28;20999;-77
2023/02/24 09:20:54;;;;;;;15.20;8.20;;;8.30;99.90;;;;;;5072142;28;20479;-85
2023/02/24 09:23:18;;;;;;;14.00;9.00;;;8.70;99.90;;;;;;5071275;28;20438;-79
2023/02/24 09:25:48;;;;;;;14.33;8.50;;;8.30;99.90;;;;;;5070191;28;20448;-80
2023/02/24 09:28:17;;;;;;;17.67;9.97;;;;;;;;;;5069951;28;20473;-79
2023/02/24 09:30:52;;;;;;;17.53;10.80;;;;;;;;;;5068392;28;20493;-80
2023/02/24 09:33:21;;;;;;;14.33;8.90;;;;;;;;;;5067387;28;20472;-79
2023/02/24 09:36:09;;;;;;;20.90;10.87;;;;;;;;;;5069417;28;20509;-79
2023/02/24 09:39:08;;;;;;;14.90;9.60;;;;;;;;;;5067146;28;20437;-80
2023/02/24 09:41:52;;;;;;;16.03;9.40;;;10.20;99.90;;;;;;5069166;28;20957;-78
2023/02/24 09:44:26;;;;;;;15.20;10.60;;;11.00;99.90;;;;;;5066946;28;20445;-78
2023/02/24 09:46:57;;;;;;;16.73;11.17;;;11.50;99.90;;;;;;5068557;28;20819;-79
2023/02/24 09:49:38;;;;;;;17.43;10.90;;;12.70;99.90;;;;;;5070937;28;20445;-79
2023/02/24 09:52:15;;;;;;;18.93;11.80;;;11.20;99.90;;;;;;5068057;28;20563;-78
2023/02/24 09:55:11;;;;;;;18.57;11.07;;;11.20;99.90;;;;;;5067346;28;20485;-78
2023/02/24 09:57:36;;;;;;;19.37;12.10;;;11.00;99.90;;;;;;5068360;28;20465;-78
2023/02/24 10:00:24;;;;;;;19.70;11.07;;;11.10;99.90;;;;;;5069247;28;20462;-78
2023/02/24 10:02:58;;;;;;;21.30;13.10;;;12.60;99.90;;;;;;5066654;28;20489;-78
2023/02/24 10:05:37;;;;;;;17.20;12.47;;;12.50;99.90;;;;;;5069376;28;20591;-78
2023/02/24 10:08:07;;;;;;;18.27;11.00;;;10.90;99.90;;;;;;5068953;28;20527;-79
2023/02/24 10:10:37;;;;;;;18.07;11.87;;;11.00;99.90;;;;;;5068822;28;20452;-77
2023/02/24 10:13:15;;;;;;;20.73;11.27;;;12.60;99.90;;;;;;5068553;28;20507;-80
2023/02/24 10:15:58;;;;;;;14.40;11.00;;;12.10;99.90;;;;;;5066813;28;20531;-78
2023/02/24 10:18:43;;;;;;;18.07;10.40;;;13.00;99.90;;;;;;5066392;28;20527;-78
2023/02/24 10:21:20;;;;;;;16.10;10.60;;;13.40;99.90;;;;;;5068404;28;20958;-79
2023/02/24 10:24:08;;;;;;;18.40;11.93;;;11.60;99.90;;;;;;5063396;28;20537;-78
2023/02/24 10:26:44;;;;;;;16.27;9.93;;;11.40;99.90;;;;;;5067617;28;21069;-78
2023/02/24 10:29:26;;;;;;;20.83;10.73;;;12.00;99.90;;;;;;5068260;28;20501;-78
2023/02/24 10:32:05;;;;;;;19.83;10.97;;;11.80;99.90;;;;;;5068598;28;20536;-78
2023/02/24 10:34:32;;;;;;;18.43;11.23;;;12.30;99.90;;;;;;5066907;28;20493;-77
2023/02/24 10:37:05;;;;;;;18.97;10.97;;;12.50;99.90;;;;;;5069548;28;20442;-76
2023/02/24 10:39:32;;;;;;;23.07;12.07;;;12.80;99.90;;;;;;5068465;28;20464;-78
2023/02/24 10:42:15;;;;;;;19.27;11.13;;;11.80;99.90;;;;;;5068411;28;20441;-78
2023/02/24 10:44:50;;;;;;;22.50;12.40;;;12.20;99.90;;;;;;5066618;28;20855;-78
2023/02/24 10:47:29;;;;;;;15.77;10.87;;;11.80;99.90;;;;;;5066033;28;20446;-81
2023/02/24 10:49:58;;;;;;;20.77;12.47;;;11.80;99.90;;;;;;5066482;28;20449;-80
2023/02/24 10:52:49;;;;;;;16.73;9.70;;;11.90;99.90;;;;;;5069002;28;20484;-77
2023/02/24 10:55:51;;;;;;;15.40;10.27;;;11.60;99.90;;;;;;5070390;28;20481;-81
2023/02/24 10:58:26;;;;;;;15.67;11.43;;;11.80;99.90;;;;;;5049414;28;20438;-77
2023/02/24 11:01:11;;;;;;;14.00;10.33;;;10.90;99.90;;;;;;5049144;28;20497;-76
2023/02/24 11:03:59;;;;;;;14.07;10.20;;;10.70;99.90;;;;;;5060578;28;20469;-77
2023/02/24 11:06:41;;;;;;;22.13;10.80;;;11.20;99.90;;;;;;5068495;28;20556;-76
2023/02/24 11:09:30;;;;;;;15.17;8.73;;;11.60;99.90;;;;;;5067435;28;20466;-76
2023/02/24 11:17:36;;;;;;;17.77;10.60;;;11.80;99.90;;;;;;5068130;28;20804;-76
2023/02/24 11:20:11;;;;;;;15.13;11.00;;;11.60;99.90;;;;;;5068742;28;20835;-81
2023/02/24 11:22:41;;;;;;;16.67;9.97;;;11.10;99.90;;;;;;5067517;28;20485;-81
2023/02/24 11:25:13;;;;;;;19.50;10.40;;;11.00;99.90;;;;;;5068912;28;20444;-78
2023/02/24 11:27:42;;;;;;;19.83;10.83;;;11.40;99.90;;;;;;5068474;28;20445;-79
2023/02/24 11:30:21;;;;;;;17.13;8.60;;;11.10;99.90;;;;;;5067345;28;20862;-77
2023/02/24 11:33:01;;;;;;;18.10;9.10;;;11.70;99.90;;;;;;5068481;28;20455;-78
2023/02/24 11:35:35;;;;;;;20.03;10.70;;;11.50;99.90;;;;;;5067814;28;20493;-80
2023/02/24 11:38:12;;;;;;;18.30;11.40;;;11.00;99.90;;;;;;5067350;28;20784;-77
2023/02/24 11:40:42;;;;;;;16.00;9.37;;;10.90;99.90;;;;;;5066799;28;20531;-78
2023/02/24 11:43:17;;;;;;;20.40;9.63;;;11.10;99.90;;;;;;5067246;28;20998;-77
2023/02/24 11:45:48;;;;;;;14.50;9.57;;;11.30;99.90;;;;;;5066678;28;21220;-77
2023/02/24 11:48:18;;;;;;;14.37;8.37;;;10.90;99.90;;;;;;5067050;28;20849;-76
2023/02/24 11:50:51;;;;;;;15.43;11.43;;;10.60;99.90;;;;;;5067599;28;20459;-77
2023/02/24 11:53:28;;;;;;;20.37;10.27;;;10.70;99.90;;;;;;5067019;28;20460;-78
2023/02/24 11:56:01;;;;;;;12.30;9.13;;;10.50;99.90;;;;;;5065985;28;20837;-78
2023/02/24 11:58:35;;;;;;;14.30;9.93;;;10.80;99.90;;;;;;5067033;28;20537;-78
2023/02/24 12:01:09;;;;;;;14.27;9.10;;;10.80;99.90;;;;;;5066745;28;20593;-76
2023/02/24 12:03:41;;;;;;;11.70;7.90;;;10.60;99.90;;;;;;5067191;28;20444;-77
2023/02/24 12:06:19;;;;;;;16.23;10.50;;;10.60;99.90;;;;;;5067202;28;20448;-78
2023/02/24 12:08:51;;;;;;;20.50;11.13;;;10.70;99.90;;;;;;5067289;28;20826;-77
2023/02/24 12:11:23;;;;;;;20.67;9.77;;;10.50;99.90;;;;;;5055465;28;21021;-77
2023/02/24 12:13:56;;;;;;;14.17;10.47;;;10.50;99.90;;;;;;5047149;28;20447;-77
2023/02/24 12:16:28;;;;;;;20.07;13.17;;;10.60;99.90;;;;;;5056145;28;20481;-78
2023/02/24 12:19:02;;;;;;;21.10;11.70;;;10.60;99.90;;;;;;5067218;28;20480;-78
2023/02/24 12:21:35;;;;;;;16.50;12.37;;;10.50;99.90;;;;;;5066601;28;21266;-77
2023/02/24 12:24:04;;;;;;;19.67;13.67;;;10.50;99.90;;;;;;5067377;28;20446;-82
2023/02/24 12:26:41;;;;;;;24.73;11.60;;;10.30;99.90;;;;;;5066889;28;20454;-78
2023/02/24 12:29:23;;;;;;;20.80;10.90;;;10.40;99.90;;;;;;5065956;28;20493;-80
2023/02/24 12:31:56;;;;;;;15.33;9.67;;;10.40;99.90;;;;;;5066853;28;20445;-78
2023/02/24 12:34:34;;;;;;;20.70;10.77;;;10.40;99.90;;;;;;5067080;28;20473;-79
2023/02/24 12:37:19;;;;;;;23.80;13.93;;;10.40;99.90;;;;;;5067483;28;20449;-80
2023/02/24 12:39:56;;;;;;;22.27;12.50;;;10.40;99.90;;;;;;5067503;28;20442;-80
2023/02/24 12:42:27;;;;;;;16.67;10.27;;;10.30;99.90;;;;;;5067344;28;20464;-79
2023/02/24 12:45:03;;;;;;;25.33;12.23;;;10.30;99.90;;;;;;5066868;28;20938;-78
2023/02/24 12:47:41;;;;;;;17.70;12.00;;;10.40;99.90;;;;;;5050499;28;20481;-80
2023/02/24 12:50:28;;;;;;;19.20;11.13;;;10.30;99.90;;;;;;5050685;28;20503;-78
2023/02/24 12:53:05;;;;;;;25.97;12.10;;;10.30;99.90;;;;;;5051280;28;20452;-79
2023/02/24 12:55:40;;;;;;;23.83;10.40;;;10.10;99.90;;;;;;5050630;28;20573;-79
2023/02/24 12:58:13;;;;;;;17.27;10.53;;;10.10;99.90;;;;;;5051013;28;20950;-79
2023/02/24 13:00:50;;;;;;;17.13;10.47;;;10.20;99.90;;;;;;5050148;28;20462;-78
2023/02/24 13:03:35;;;;;;;18.23;11.00;;;10.20;99.90;;;;;;5060552;28;20969;-78
2023/02/24 13:06:12;;;;;;;17.73;11.00;;;10.10;99.90;;;;;;5050551;28;20446;-80
2023/02/24 13:08:51;;;;;;;23.23;11.43;;;10.10;99.90;;;;;;5065822;28;20461;-79
2023/02/24 13:11:29;;;;;;;17.33;10.30;;;10.00;99.90;;;;;;5069053;28;20460;-79
2023/02/24 13:14:02;;;;;;;25.07;11.77;;;10.10;99.90;;;;;;5050629;28;20450;-79
2023/02/24 13:16:30;;;;;;;20.70;10.33;;;10.10;99.90;;;;;;5060851;28;20488;-78
2023/02/24 13:19:18;;;;;;;18.73;10.17;;;10.30;99.90;;;;;;5069390;28;20464;-78
2023/02/24 13:21:55;;;;;;;19.73;12.57;;;10.40;99.90;;;;;;5070640;28;20499;-80
2023/02/24 13:24:24;;;;;;;19.23;11.20;;;10.30;99.90;;;;;;5070145;28;20453;-80
2023/02/24 13:26:51;;;;;;;22.17;12.33;;;10.50;99.90;;;;;;5069899;28;21028;-77